createdAt,value
2018-01-10T00:01:02.718Z,7.10
2018-01-10T00:03:30.312Z,7.90
2018-01-10T00:05:57.887Z,7.22
2018-01-10T00:08:25.444Z,5.93
2018-01-10T00:10:53.582Z,6.60
2018-01-10T00:13:21.134Z,7.30
2018-01-10T00:15:48.696Z,6.50
2018-01-10T00:18:16.473Z,5.37
2018-01-10T00:20:44.059Z,5.93
2018-01-10T00:23:11.634Z,5.62
2018-01-10T00:25:39.411Z,5.87
2018-01-10T00:28:07.333Z,4.90
2018-01-10T00:30:34.972Z,4.87
2018-01-10T00:33:02.525Z,6.87
2018-01-10T00:35:30.660Z,5.87
2018-01-10T00:37:59.665Z,6.00
2018-01-10T00:40:27.255Z,6.75
2018-01-10T00:42:55.063Z,6.57
2018-01-10T00:45:22.644Z,6.60
2018-01-10T00:47:50.469Z,12.00
2018-01-10T00:50:18.664Z,15.70
2018-01-10T00:52:46.268Z,9.40
2018-01-10T00:55:13.856Z,7.80
2018-01-10T00:57:42.104Z,12.23
2018-01-10T01:00:09.869Z,11.23
2018-01-10T01:02:37.434Z,16.55
2018-01-10T01:05:06.857Z,19.95
2018-01-10T01:07:34.581Z,16.92
2018-01-10T01:10:02.270Z,14.80
2018-01-10T01:12:30.741Z,9.88
2018-01-10T01:14:58.347Z,9.60
2018-01-10T01:17:25.960Z,13.15
2018-01-10T01:19:53.563Z,15.90
2018-01-10T01:22:21.185Z,19.50
2018-01-10T01:24:48.742Z,21.10
2018-01-10T01:27:16.393Z,21.65
2018-01-10T01:29:43.967Z,21.48
2018-01-10T01:32:11.535Z,20.88
2018-01-10T01:34:39.576Z,17.98
2018-01-10T01:37:07.416Z,16.55
2018-01-10T01:39:35.121Z,18.08
2018-01-10T01:42:02.933Z,16.08
2018-01-10T01:44:30.537Z,17.70
2018-01-10T01:46:58.107Z,13.10
2018-01-10T01:49:25.715Z,9.45
2018-01-10T01:51:53.266Z,7.35
2018-01-10T01:54:20.865Z,5.45
2018-01-10T01:56:48.981Z,6.07
2018-01-10T01:59:16.662Z,6.60
2018-01-10T02:01:45.123Z,5.70
2018-01-10T02:04:12.740Z,5.18
2018-01-10T02:06:40.570Z,4.20
2018-01-10T02:09:08.173Z,4.30
2018-01-10T02:11:35.988Z,4.12
2018-01-10T02:14:03.574Z,4.03
2018-01-10T02:16:31.160Z,3.83
2018-01-10T02:18:58.928Z,3.50
2018-01-10T02:21:27.069Z,4.35
2018-01-10T02:23:54.629Z,3.10
2018-01-10T02:26:22.199Z,4.07
2018-01-10T02:28:49.957Z,3.42
2018-01-10T02:31:17.538Z,3.53
2018-01-10T02:33:45.277Z,4.18
2018-01-10T02:36:12.865Z,4.25
2018-01-10T02:38:40.479Z,3.25
2018-01-10T02:41:08.028Z,3.30
2018-01-10T02:43:35.816Z,3.85
2018-01-10T02:46:03.388Z,3.37
2018-01-10T02:48:31.888Z,3.47
2018-01-10T02:51:00.466Z,3.42
2018-01-10T02:53:28.124Z,4.07
2018-01-10T02:55:55.920Z,4.32
2018-01-10T02:58:23.566Z,4.10
2018-01-10T03:00:51.348Z,3.75
2018-01-10T03:03:18.920Z,4.80
2018-01-10T03:05:46.711Z,3.95
2018-01-10T03:08:14.545Z,4.32
2018-01-10T03:10:43.008Z,4.30
2018-01-10T03:13:10.572Z,5.07
2018-01-10T03:15:38.153Z,5.20
2018-01-10T03:18:05.928Z,4.40
2018-01-10T03:20:33.690Z,4.30
2018-01-10T03:23:01.618Z,4.40
2018-01-10T03:25:29.165Z,4.60
2018-01-10T03:27:57.720Z,5.47
2018-01-10T03:30:25.322Z,5.18
2018-01-10T03:32:52.919Z,5.03
2018-01-10T03:35:20.515Z,4.57
2018-01-10T03:37:48.134Z,5.40
2018-01-10T03:40:15.733Z,5.70
2018-01-10T03:42:43.531Z,4.75
2018-01-10T03:45:11.079Z,5.78
2018-01-10T03:47:38.833Z,5.32
2018-01-10T03:50:06.448Z,5.15
2018-01-10T03:52:34.080Z,6.60
2018-01-10T03:55:01.726Z,6.03
2018-01-10T03:57:29.481Z,5.97
2018-01-10T03:59:57.276Z,6.40
2018-01-10T04:02:24.882Z,7.30
2018-01-10T04:04:52.668Z,8.00
2018-01-10T04:07:22.531Z,5.72
2018-01-10T04:09:50.133Z,6.30
2018-01-10T04:12:17.726Z,4.87
2018-01-10T04:14:45.282Z,6.32
2018-01-10T04:17:12.944Z,5.82
2018-01-10T04:19:40.517Z,4.97
2018-01-10T04:22:08.253Z,5.35
2018-01-10T04:24:35.807Z,5.20
2018-01-10T04:27:04.205Z,5.47
2018-01-10T04:29:31.741Z,5.47
2018-01-10T04:31:59.337Z,4.50
2018-01-10T04:34:26.888Z,5.45
2018-01-10T04:36:54.468Z,5.00
2018-01-10T04:39:22.261Z,5.05
2018-01-10T04:41:49.901Z,4.53
2018-01-10T04:44:17.431Z,4.80
2018-01-10T04:46:45.032Z,4.82
2018-01-10T04:49:12.666Z,5.18
2018-01-10T04:51:40.596Z,5.05
2018-01-10T04:54:08.197Z,5.05
2018-01-10T04:56:35.747Z,4.45
2018-01-10T04:59:03.352Z,4.40
2018-01-10T05:01:30.929Z,4.87
2018-01-10T05:03:58.810Z,4.87
2018-01-10T05:06:26.413Z,4.95
2018-01-10T05:08:54.034Z,5.37
2018-01-10T05:11:21.834Z,5.40
2018-01-10T05:13:49.449Z,5.90
2018-01-10T05:16:17.087Z,5.18
2018-01-10T05:18:44.614Z,5.85
2018-01-10T05:21:12.244Z,6.30
2018-01-10T05:23:39.837Z,6.68
2018-01-10T05:26:08.121Z,6.78
2018-01-10T05:28:36.064Z,6.90
2018-01-10T05:31:04.094Z,7.50
2018-01-10T05:33:31.943Z,8.70
2018-01-10T05:35:59.531Z,8.93
2018-01-10T05:38:28.070Z,9.52
2018-01-10T05:40:55.760Z,9.73
2018-01-10T05:43:23.611Z,8.63
2018-01-10T05:45:51.385Z,8.45
2018-01-10T05:48:19.168Z,6.82
2018-01-10T05:50:47.133Z,6.65
2018-01-10T05:53:14.750Z,7.62
2018-01-10T05:55:42.339Z,7.32
2018-01-10T05:58:10.238Z,8.18
2018-01-10T06:00:37.904Z,11.25
2018-01-10T06:03:05.689Z,10.63
2018-01-10T06:05:33.952Z,8.75
2018-01-10T06:08:01.556Z,9.60
2018-01-10T06:10:29.156Z,7.95
2018-01-10T06:12:57.373Z,8.88
2018-01-10T06:15:25.000Z,8.63
2018-01-10T06:17:52.573Z,7.90
2018-01-10T06:20:20.115Z,9.95
2018-01-10T06:22:48.223Z,11.05
2018-01-10T06:25:16.048Z,14.27
2018-01-10T06:27:43.624Z,14.38
2018-01-10T06:30:11.345Z,19.37
2018-01-10T06:32:38.914Z,24.25
2018-01-10T06:35:08.046Z,21.87
2018-01-10T06:37:35.669Z,20.12
2018-01-10T06:40:04.224Z,20.45
2018-01-10T06:42:31.996Z,15.80
2018-01-10T06:45:00.560Z,11.10
2018-01-10T06:47:29.249Z,11.25
2018-01-10T06:49:57.699Z,8.77
2018-01-10T06:52:26.047Z,11.40
2018-01-10T06:54:53.715Z,9.88
2018-01-10T06:57:21.492Z,9.93
2018-01-10T06:59:49.913Z,10.38
2018-01-10T07:02:17.986Z,8.13
2018-01-10T07:04:45.603Z,8.65
2018-01-10T07:07:13.365Z,8.35
2018-01-10T07:09:41.007Z,7.97
2018-01-10T07:12:09.450Z,7.62
2018-01-10T07:14:37.042Z,7.78
2018-01-10T07:17:04.663Z,9.57
2018-01-10T07:19:33.160Z,10.60
2018-01-10T07:22:01.400Z,9.80
2018-01-10T07:24:29.653Z,10.10
2018-01-10T07:26:57.202Z,11.70
2018-01-10T07:29:25.732Z,12.15
2018-01-10T07:31:53.331Z,12.07
2018-01-10T07:34:20.914Z,14.32
2018-01-10T07:36:49.217Z,14.60
2018-01-10T07:39:16.822Z,14.05
2018-01-10T07:41:45.159Z,14.48
2018-01-10T07:44:12.731Z,16.15
2018-01-10T07:46:40.543Z,17.52
2018-01-10T07:49:08.354Z,13.43
2018-01-10T07:51:35.930Z,12.07
2018-01-10T07:54:03.540Z,11.80
2018-01-10T07:56:31.109Z,13.10
2018-01-10T07:58:58.874Z,9.38
2018-01-10T08:01:26.476Z,9.73
2018-01-10T08:03:54.072Z,8.23
2018-01-10T08:06:21.625Z,9.10
2018-01-10T08:08:49.305Z,9.45
2018-01-10T08:11:17.856Z,10.80
2018-01-10T08:13:46.163Z,7.95
2018-01-10T08:16:14.452Z,7.20
2018-01-10T08:18:42.928Z,7.00
2018-01-10T08:21:10.508Z,6.90
2018-01-10T08:23:38.808Z,6.43
2018-01-10T08:26:07.288Z,6.53
2018-01-10T08:28:35.572Z,7.20
2018-01-10T08:31:04.203Z,7.25
2018-01-10T08:33:31.844Z,6.65
2018-01-10T08:35:59.501Z,6.85
2018-01-10T08:38:28.040Z,6.47
2018-01-10T08:40:55.678Z,5.95
2018-01-10T08:43:23.431Z,5.72
2018-01-10T08:45:51.070Z,6.15
2018-01-10T08:48:18.688Z,7.68
2018-01-10T08:50:46.461Z,8.05
2018-01-10T08:53:14.320Z,8.25
2018-01-10T08:55:41.848Z,8.88
2018-01-10T08:58:09.437Z,7.47
2018-01-10T09:00:37.339Z,7.95
2018-01-10T09:03:05.244Z,7.97
2018-01-10T09:05:32.807Z,7.07
2018-01-10T09:08:01.930Z,8.00
2018-01-10T09:10:29.491Z,5.80
2018-01-10T09:12:57.047Z,8.55
2018-01-10T09:15:24.636Z,9.05
2018-01-10T09:17:52.875Z,5.90
2018-01-10T09:20:20.505Z,6.80
2018-01-10T09:22:48.119Z,6.65
2018-01-10T09:25:15.871Z,7.53
2018-01-10T09:27:43.500Z,7.20
2018-01-10T09:30:11.242Z,7.60
2018-01-10T09:32:38.790Z,9.45
2018-01-10T09:35:06.363Z,8.95
2018-01-10T09:37:34.250Z,8.88
2018-01-10T09:40:01.803Z,8.05
2018-01-10T09:42:30.577Z,7.55
2018-01-10T09:44:58.173Z,8.75
2018-01-10T09:47:25.750Z,9.95
2018-01-10T09:49:53.393Z,7.00
2018-01-10T09:52:21.157Z,8.00
2018-01-10T09:54:48.783Z,7.55
2018-01-10T09:57:16.715Z,6.28
2018-01-10T09:59:44.431Z,6.57
2018-01-10T10:02:12.099Z,7.32
2018-01-10T10:04:40.537Z,6.12
2018-01-10T10:07:08.346Z,6.45
2018-01-10T10:09:35.996Z,6.55
2018-01-10T10:12:04.476Z,6.05
2018-01-10T10:14:32.248Z,6.65
2018-01-10T10:16:59.850Z,6.62
2018-01-10T10:19:27.441Z,8.30
2018-01-10T10:21:55.235Z,7.05
2018-01-10T10:24:23.786Z,6.05
2018-01-10T10:26:51.375Z,7.85
2018-01-10T10:29:19.131Z,7.00
2018-01-10T10:31:47.305Z,6.37
2018-01-10T10:34:14.955Z,6.20
2018-01-10T10:36:43.075Z,6.15
2018-01-10T10:39:11.067Z,8.70
2018-01-10T10:41:38.666Z,5.50
2018-01-10T10:44:06.519Z,7.55
2018-01-10T10:46:34.315Z,7.55
2018-01-10T10:49:02.874Z,8.65
2018-01-10T10:51:30.578Z,8.10
2018-01-10T10:53:58.169Z,7.50
2018-01-10T10:56:25.745Z,9.57
2018-01-10T10:58:53.326Z,9.75
2018-01-10T11:01:21.274Z,8.60
2018-01-10T11:03:48.862Z,7.57
2018-01-10T11:06:16.504Z,9.03
2018-01-10T11:08:45.123Z,9.30
2018-01-10T11:11:12.948Z,7.20
2018-01-10T11:13:40.549Z,6.83
2018-01-10T11:16:08.306Z,7.13
2018-01-10T11:18:35.923Z,6.80
2018-01-10T11:21:03.557Z,6.10
2018-01-10T11:23:31.235Z,6.47
2018-01-10T11:25:58.852Z,6.03
2018-01-10T11:28:28.453Z,6.70
2018-01-10T11:30:56.249Z,6.77
2018-01-10T11:33:23.947Z,5.50
2018-01-10T11:35:51.564Z,6.37
2018-01-10T11:38:19.156Z,5.50
2018-01-10T11:40:47.591Z,4.80
2018-01-10T11:43:15.151Z,6.10
2018-01-10T11:45:43.588Z,6.10
2018-01-10T11:48:12.607Z,5.93
2018-01-10T11:50:40.193Z,6.30
2018-01-10T11:53:07.968Z,6.00
2018-01-10T11:55:36.345Z,7.17
2018-01-10T11:58:04.909Z,6.60
2018-01-10T12:00:32.547Z,5.87
2018-01-10T12:03:00.135Z,6.80
2018-01-10T12:05:27.740Z,7.05
2018-01-10T12:07:55.413Z,5.13
2018-01-10T12:10:23.005Z,5.30
2018-01-10T12:12:50.820Z,5.80
2018-01-10T12:15:18.454Z,6.13
2018-01-10T12:17:46.116Z,5.43
2018-01-10T12:20:13.950Z,6.70
2018-01-10T12:22:45.023Z,5.60
2018-01-10T12:25:12.617Z,5.70
2018-01-10T12:27:40.253Z,6.67
2018-01-10T12:30:08.182Z,6.13
2018-01-10T12:32:35.791Z,6.47
2018-01-10T12:35:03.357Z,7.23
2018-01-10T12:37:32.014Z,6.90
2018-01-10T12:40:01.029Z,6.45
2018-01-10T12:42:29.222Z,7.27
2018-01-10T12:44:56.834Z,5.80
2018-01-10T12:47:24.473Z,5.97
2018-01-10T12:49:52.042Z,5.93
2018-01-10T12:52:19.626Z,5.72
2018-01-10T12:54:47.343Z,6.05
2018-01-10T12:57:14.963Z,6.07
2018-01-10T12:59:42.677Z,6.47
2018-01-10T13:02:10.324Z,6.68
2018-01-10T13:04:37.894Z,6.95
2018-01-10T13:07:05.478Z,8.65
2018-01-10T13:09:33.123Z,8.32
2018-01-10T13:12:00.717Z,7.07
2018-01-10T13:14:28.312Z,8.82
2018-01-10T13:16:56.296Z,9.73
2018-01-10T13:19:23.867Z,9.63
2018-01-10T13:21:51.475Z,8.10
2018-01-10T13:24:19.108Z,8.48
2018-01-10T13:26:47.902Z,9.23
2018-01-10T13:29:16.440Z,8.07
2018-01-10T13:31:44.096Z,8.20
2018-01-10T13:34:11.670Z,8.47
2018-01-10T13:36:39.332Z,6.70
2018-01-10T13:39:06.930Z,6.03
2018-01-10T13:41:34.494Z,7.43
2018-01-10T13:44:02.057Z,8.57
2018-01-10T13:46:30.888Z,10.07
2018-01-10T13:48:59.467Z,10.30
2018-01-10T13:51:27.051Z,6.95
2018-01-10T13:53:54.732Z,7.03
2018-01-10T13:56:23.100Z,7.03
2018-01-10T13:58:51.079Z,7.00
2018-01-10T14:01:18.757Z,7.47
2018-01-10T14:03:46.376Z,7.37
2018-01-10T14:06:13.976Z,7.43
2018-01-10T14:08:41.603Z,8.80
2018-01-10T14:11:09.218Z,8.10
2018-01-10T14:13:36.806Z,7.57
2018-01-10T14:16:04.600Z,7.50
2018-01-10T14:18:32.453Z,6.12
2018-01-10T14:21:00.190Z,8.33
2018-01-10T14:23:27.892Z,7.57
2018-01-10T14:25:56.648Z,7.28
2018-01-10T14:28:24.516Z,6.20
2018-01-10T14:30:52.310Z,8.65
2018-01-10T14:33:20.016Z,8.30
2018-01-10T14:35:47.576Z,8.90
2018-01-10T14:38:15.195Z,9.52
2018-01-10T14:40:42.948Z,9.00
2018-01-10T14:43:10.597Z,10.52
2018-01-10T14:45:38.193Z,10.35
2018-01-10T14:48:06.119Z,11.48
2018-01-10T14:50:33.945Z,12.15
2018-01-10T14:53:01.601Z,11.57
2018-01-10T14:55:29.230Z,13.50
2018-01-10T14:57:56.860Z,9.95
2018-01-10T15:00:24.611Z,11.40
2018-01-10T15:02:52.260Z,12.10
2018-01-10T15:05:20.071Z,10.35
2018-01-10T15:07:48.251Z,12.43
2018-01-10T15:10:16.057Z,13.80
2018-01-10T15:12:43.668Z,8.77
2018-01-10T15:15:11.545Z,8.82
2018-01-10T15:17:39.432Z,10.48
2018-01-10T15:20:07.215Z,9.25
2018-01-10T15:22:35.026Z,10.70
2018-01-10T15:25:02.867Z,11.50
2018-01-10T15:27:32.186Z,14.30
2018-01-10T15:29:59.840Z,13.68
2018-01-10T15:32:27.541Z,13.27
2018-01-10T15:34:55.154Z,13.70
2018-01-10T15:37:23.899Z,15.50
2018-01-10T15:39:51.571Z,20.40
2018-01-10T15:42:20.033Z,20.33
2018-01-10T15:44:47.624Z,19.17
2018-01-10T15:47:15.339Z,22.90
2018-01-10T15:49:42.965Z,17.50
2018-01-10T15:52:11.352Z,17.20
2018-01-10T15:54:39.001Z,15.77
2018-01-10T15:57:06.730Z,17.60
2018-01-10T15:59:34.575Z,13.65
2018-01-10T16:02:02.169Z,14.90
2018-01-10T16:04:29.772Z,17.67
2018-01-10T16:06:57.562Z,16.05
2018-01-10T16:09:25.245Z,15.65
2018-01-10T16:11:52.940Z,15.98
2018-01-10T16:14:21.137Z,16.83
2018-01-10T16:16:49.525Z,19.87
2018-01-10T16:19:17.685Z,21.00
2018-01-10T16:21:45.617Z,23.05
2018-01-10T16:24:13.446Z,28.42
2018-01-10T16:26:41.246Z,29.48
2018-01-10T16:29:09.224Z,30.40
2018-01-10T16:31:36.907Z,26.92
2018-01-10T16:34:04.617Z,31.75
2018-01-10T16:36:32.406Z,31.60
2018-01-10T16:39:00.942Z,36.00
2018-01-10T16:41:29.349Z,29.48
2018-01-10T16:43:57.113Z,34.25
2018-01-10T16:46:24.741Z,33.75
2018-01-10T16:48:52.348Z,29.02
2018-01-10T16:51:19.998Z,29.87
2018-01-10T16:53:48.248Z,31.83
2018-01-10T16:56:16.541Z,33.10
2018-01-10T16:58:44.417Z,30.98
2018-01-10T17:01:12.111Z,28.40
2018-01-10T17:03:40.752Z,30.67
2018-01-10T17:06:08.443Z,29.87
2018-01-10T17:08:36.084Z,27.95
2018-01-10T17:11:03.770Z,32.45
2018-01-10T17:13:32.348Z,35.40
2018-01-10T17:15:59.916Z,33.90
2018-01-10T17:18:28.450Z,34.15
2018-01-10T17:20:56.477Z,26.62
2018-01-10T17:23:24.362Z,29.70
2018-01-10T17:25:53.121Z,35.85
2018-01-10T17:28:20.700Z,42.78
2018-01-10T17:30:48.292Z,38.65
2018-01-10T17:33:15.849Z,38.25
2018-01-10T17:35:44.112Z,38.55
2018-01-10T17:38:11.844Z,26.33
2018-01-10T17:40:39.914Z,30.00
2018-01-10T17:43:07.676Z,23.20
2018-01-10T17:45:35.329Z,29.10
2018-01-10T17:48:03.777Z,18.83
2018-01-10T17:50:32.564Z,26.05
2018-01-10T17:53:00.372Z,36.17
2018-01-10T17:55:27.993Z,41.55
2018-01-10T17:57:56.098Z,39.17
2018-01-10T18:00:25.008Z,35.65
2018-01-10T18:02:52.608Z,39.75
2018-01-10T18:05:21.141Z,46.47
2018-01-10T18:07:48.816Z,49.05
2018-01-10T18:10:16.509Z,40.42
2018-01-10T18:12:45.764Z,48.70
2018-01-10T18:15:13.452Z,48.15
2018-01-10T18:17:41.571Z,44.28
2018-01-10T18:20:09.271Z,42.80
2018-01-10T18:22:36.966Z,46.67
2018-01-10T18:25:05.004Z,43.53
2018-01-10T18:27:32.792Z,41.13
2018-01-10T18:30:00.983Z,40.17
2018-01-10T18:32:28.599Z,39.38
2018-01-10T18:34:56.209Z,35.55
2018-01-10T18:37:24.036Z,30.73
2018-01-10T18:39:52.651Z,31.60
2018-01-10T18:42:20.689Z,32.85
2018-01-10T18:44:48.362Z,30.77
2018-01-10T18:47:15.997Z,36.55
2018-01-10T18:49:43.576Z,31.67
2018-01-10T18:52:11.150Z,39.63
2018-01-10T18:54:39.689Z,37.38
2018-01-10T18:57:08.019Z,38.50
2018-01-10T18:59:36.078Z,37.75
2018-01-10T19:02:04.577Z,37.80
2018-01-10T19:04:32.810Z,43.50
2018-01-10T19:07:00.592Z,34.42
2018-01-10T19:09:29.149Z,32.70
2018-01-10T19:11:58.309Z,34.13
2018-01-10T19:14:26.755Z,37.53
2018-01-10T19:16:55.370Z,49.78
2018-01-10T19:19:23.033Z,54.25
2018-01-10T19:21:50.759Z,75.93
2018-01-10T19:24:18.644Z,85.03
2018-01-10T19:26:47.090Z,81.37
2018-01-10T19:29:16.085Z,82.00
2018-01-10T19:31:43.701Z,86.63
2018-01-10T19:34:12.091Z,81.30
2018-01-10T19:36:40.344Z,67.50
2018-01-10T19:39:08.084Z,58.10
2018-01-10T19:41:35.703Z,36.22
2018-01-10T19:44:03.770Z,40.92
2018-01-10T19:46:31.586Z,36.20
2018-01-10T19:48:59.898Z,31.25
2018-01-10T19:51:28.328Z,40.42
2018-01-10T19:53:55.946Z,41.63
2018-01-10T19:56:24.809Z,39.40
2018-01-10T19:58:52.704Z,28.30
2018-01-10T20:01:20.457Z,25.98
2018-01-10T20:03:47.994Z,33.23
2018-01-10T20:06:15.557Z,31.30
2018-01-10T20:08:43.284Z,27.73
2018-01-10T20:11:10.982Z,25.12
2018-01-10T20:13:39.985Z,24.25
2018-01-10T20:16:07.580Z,25.35
2018-01-10T20:18:35.238Z,19.95
2018-01-10T20:21:02.780Z,21.55
2018-01-10T20:23:30.432Z,18.60
2018-01-10T20:25:58.023Z,20.75
2018-01-10T20:28:25.578Z,21.08
2018-01-10T20:30:53.279Z,21.95
2018-01-10T20:33:20.876Z,23.70
2018-01-10T20:35:48.413Z,19.60
2018-01-10T20:38:16.778Z,18.30
2018-01-10T20:40:45.606Z,18.58
2018-01-10T20:43:14.112Z,17.98
2018-01-10T20:45:41.744Z,22.30
2018-01-10T20:48:09.552Z,19.17
2018-01-10T20:50:37.148Z,16.80
2018-01-10T20:53:05.730Z,20.33
2018-01-10T20:55:34.208Z,19.45
2018-01-10T20:58:02.425Z,20.92
2018-01-10T21:00:30.116Z,20.98
2018-01-10T21:02:57.745Z,21.48
2018-01-10T21:05:25.381Z,16.52
2018-01-10T21:07:53.100Z,20.75
2018-01-10T21:10:20.710Z,20.73
2018-01-10T21:12:48.324Z,19.80
2018-01-10T21:15:15.983Z,19.58
2018-01-10T21:17:43.647Z,18.70
2018-01-10T21:20:11.216Z,19.70
2018-01-10T21:22:38.917Z,15.68
2018-01-10T21:25:06.538Z,15.00
2018-01-10T21:27:34.182Z,15.05
2018-01-10T21:30:01.849Z,14.30
2018-01-10T21:32:29.538Z,15.57
2018-01-10T21:34:57.784Z,15.82
2018-01-10T21:37:27.339Z,16.12
2018-01-10T21:39:55.816Z,17.70
2018-01-10T21:42:23.614Z,20.05
2018-01-10T21:44:51.429Z,23.12
2018-01-10T21:47:19.044Z,20.25
2018-01-10T21:49:46.657Z,17.80
2018-01-10T21:52:14.473Z,17.45
2018-01-10T21:54:42.062Z,18.17
2018-01-10T21:57:09.655Z,16.30
2018-01-10T21:59:38.266Z,13.07
2018-01-10T22:02:05.853Z,14.63
2018-01-10T22:04:33.632Z,16.08
2018-01-10T22:07:01.213Z,17.70
2018-01-10T22:09:28.862Z,16.65
2018-01-10T22:11:56.647Z,15.25
2018-01-10T22:14:24.543Z,17.30
2018-01-10T22:16:52.214Z,16.45
2018-01-10T22:19:19.808Z,15.32
2018-01-10T22:21:47.568Z,16.55
2018-01-10T22:24:16.133Z,16.73
2018-01-10T22:26:43.733Z,19.62
2018-01-10T22:29:11.344Z,21.33
2018-01-10T22:31:39.138Z,20.90
2018-01-10T22:34:06.719Z,16.25
2018-01-10T22:36:34.336Z,16.27
2018-01-10T22:39:02.309Z,15.80
2018-01-10T22:41:29.883Z,15.05
2018-01-10T22:43:57.447Z,14.65
2018-01-10T22:46:25.093Z,16.90
2018-01-10T22:48:53.316Z,12.45
2018-01-10T22:51:20.896Z,14.95
2018-01-10T22:53:48.492Z,14.75
2018-01-10T22:56:16.045Z,12.80
2018-01-10T22:58:43.830Z,14.38
2018-01-10T23:01:11.434Z,11.60
2018-01-10T23:03:39.195Z,11.68
2018-01-10T23:06:07.759Z,12.00
2018-01-10T23:08:38.791Z,10.98
2018-01-10T23:11:07.811Z,11.25
2018-01-10T23:13:36.757Z,11.85
2018-01-10T23:16:04.994Z,11.95
2018-01-10T23:18:34.659Z,13.00
2018-01-10T23:21:04.675Z,11.73
2018-01-10T23:23:32.882Z,11.12
2018-01-10T23:26:02.822Z,11.10
2018-01-10T23:28:31.925Z,11.95
2018-01-10T23:31:01.167Z,11.57
2018-01-10T23:33:30.227Z,11.30
2018-01-10T23:35:59.718Z,13.15
2018-01-10T23:38:28.114Z,12.18
2018-01-10T23:40:55.845Z,12.40
2018-01-10T23:43:23.442Z,13.48
2018-01-10T23:45:51.004Z,13.27
2018-01-10T23:48:19.014Z,14.30
2018-01-10T23:50:47.620Z,12.47
2018-01-10T23:53:16.816Z,13.85
2018-01-10T23:55:47.102Z,13.37
2018-01-10T23:58:16.634Z,14.40
